sensor_id;sensor_type;location;lat;lon;timestamp;pressure;altitude;pressure_sealevel;temperature;humidity
32083;BME280;18597;48.328;7.932;2023-04-28T00:00:28;99285.19;;;12.09;100.00
32083;BME280;18597;48.328;7.932;2023-04-28T00:02:54;99286.19;;;12.08;100.00
32083;BME280;18597;48.328;7.932;2023-04-28T00:05:20;99280.56;;;12.11;100.00
32083;BME280;18597;48.328;7.932;2023-04-28T00:07:48;99278.88;;;12.10;100.00
32083;BME280;18597;48.328;7.932;2023-04-28T00:10:14;99271.06;;;12.16;100.00
32083;BME280;18597;48.328;7.932;2023-04-28T00:12:40;99267.84;;;12.13;100.00
32083;BME280;18597;48.328;7.932;2023-04-28T00:15:06;99264.53;;;12.01;100.00
32083;BME280;18597;48.328;7.932;2023-04-28T00:17:32;99261.84;;;12.01;100.00
32083;BME280;18597;48.328;7.932;2023-04-28T00:19:58;99264.94;;;12.06;100.00
32083;BME280;18597;48.328;7.932;2023-04-28T00:22:24;99259.72;;;12.05;100.00
32083;BME280;18597;48.328;7.932;2023-04-28T00:24:50;99252.69;;;12.04;100.00
32083;BME280;18597;48.328;7.932;2023-04-28T00:27:16;99248.41;;;12.11;100.00
32083;BME280;18597;48.328;7.932;2023-04-28T00:29:41;99246.44;;;12.13;100.00
32083;BME280;18597;48.328;7.932;2023-04-28T00:32:08;99243.66;;;12.05;100.00
32083;BME280;18597;48.328;7.932;2023-04-28T00:34:33;99246.94;;;11.99;100.00
32083;BME280;18597;48.328;7.932;2023-04-28T00:37:02;99251.00;;;12.03;100.00
32083;BME280;18597;48.328;7.932;2023-04-28T00:39:29;99245.56;;;11.94;100.00
32083;BME280;18597;48.328;7.932;2023-04-28T00:41:55;99245.16;;;11.89;100.00
32083;BME280;18597;48.328;7.932;2023-04-28T00:44:21;99242.16;;;11.92;100.00
32083;BME280;18597;48.328;7.932;2023-04-28T00:46:47;99238.13;;;11.88;100.00
32083;BME280;18597;48.328;7.932;2023-04-28T00:49:14;99245.59;;;11.85;100.00
32083;BME280;18597;48.328;7.932;2023-04-28T00:51:41;99238.72;;;11.82;100.00
32083;BME280;18597;48.328;7.932;2023-04-28T00:54:07;99244.56;;;11.96;100.00
32083;BME280;18597;48.328;7.932;2023-04-28T00:56:33;99239.69;;;12.09;100.00
32083;BME280;18597;48.328;7.932;2023-04-28T00:58:59;99239.59;;;12.01;100.00
32083;BME280;18597;48.328;7.932;2023-04-28T01:01:25;99239.31;;;12.04;100.00
32083;BME280;18597;48.328;7.932;2023-04-28T01:03:50;99247.41;;;11.94;100.00
32083;BME280;18597;48.328;7.932;2023-04-28T01:06:17;99247.69;;;11.91;100.00
32083;BME280;18597;48.328;7.932;2023-04-28T01:08:48;99253.81;;;12.01;100.00
32083;BME280;18597;48.328;7.932;2023-04-28T01:11:16;99245.84;;;11.91;100.00
32083;BME280;18597;48.328;7.932;2023-04-28T01:13:41;99252.28;;;11.99;100.00
32083;BME280;18597;48.328;7.932;2023-04-28T01:16:07;99254.69;;;12.02;100.00
32083;BME280;18597;48.328;7.932;2023-04-28T01:18:33;99252.63;;;11.86;100.00
32083;BME280;18597;48.328;7.932;2023-04-28T01:20:59;99257.84;;;11.78;100.00
32083;BME280;18597;48.328;7.932;2023-04-28T01:23:25;99248.19;;;11.67;100.00
32083;BME280;18597;48.328;7.932;2023-04-28T01:25:51;99247.97;;;11.78;100.00
32083;BME280;18597;48.328;7.932;2023-04-28T01:28:17;99264.94;;;11.69;100.00
32083;BME280;18597;48.328;7.932;2023-04-28T01:30:43;99264.09;;;11.68;100.00
32083;BME280;18597;48.328;7.932;2023-04-28T01:33:09;99261.31;;;11.60;100.00
32083;BME280;18597;48.328;7.932;2023-04-28T01:35:35;99263.09;;;11.70;100.00
32083;BME280;18597;48.328;7.932;2023-04-28T01:38:01;99272.44;;;11.56;100.00
32083;BME280;18597;48.328;7.932;2023-04-28T01:40:26;99281.22;;;11.38;100.00
32083;BME280;18597;48.328;7.932;2023-04-28T01:42:52;99283.31;;;11.45;100.00
32083;BME280;18597;48.328;7.932;2023-04-28T01:45:18;99281.69;;;11.34;100.00
32083;BME280;18597;48.328;7.932;2023-04-28T01:47:44;99281.69;;;11.34;100.00
32083;BME280;18597;48.328;7.932;2023-04-28T01:50:10;99281.06;;;11.40;100.00
32083;BME280;18597;48.328;7.932;2023-04-28T01:52:36;99291.25;;;11.27;100.00
32083;BME280;18597;48.328;7.932;2023-04-28T01:55:21;99295.75;;;11.17;100.00
32083;BME280;18597;48.328;7.932;2023-04-28T01:57:47;99296.06;;;11.14;100.00
32083;BME280;18597;48.328;7.932;2023-04-28T02:00:13;99302.81;;;11.08;100.00
32083;BME280;18597;48.328;7.932;2023-04-28T02:02:39;99301.41;;;10.94;100.00
32083;BME280;18597;48.328;7.932;2023-04-28T02:05:06;99307.91;;;10.92;100.00
32083;BME280;18597;48.328;7.932;2023-04-28T02:07:32;99300.88;;;10.91;100.00
32083;BME280;18597;48.328;7.932;2023-04-28T02:09:58;99294.09;;;10.87;100.00
32083;BME280;18597;48.328;7.932;2023-04-28T02:12:23;99302.41;;;10.83;100.00
32083;BME280;18597;48.328;7.932;2023-04-28T02:14:49;99302.41;;;10.83;100.00
32083;BME280;18597;48.328;7.932;2023-04-28T02:17:15;99298.91;;;10.83;100.00
32083;BME280;18597;48.328;7.932;2023-04-28T02:19:41;99298.06;;;10.82;100.00
32083;BME280;18597;48.328;7.932;2023-04-28T02:22:07;99293.69;;;10.81;100.00
32083;BME280;18597;48.328;7.932;2023-04-28T02:24:35;99290.59;;;10.76;100.00
32083;BME280;18597;48.328;7.932;2023-04-28T02:27:04;99293.53;;;10.93;100.00
32083;BME280;18597;48.328;7.932;2023-04-28T02:29:30;99278.34;;;10.93;100.00
32083;BME280;18597;48.328;7.932;2023-04-28T02:31:56;99282.00;;;10.92;100.00
32083;BME280;18597;48.328;7.932;2023-04-28T02:34:22;99280.59;;;10.88;100.00
32083;BME280;18597;48.328;7.932;2023-04-28T02:36:48;99272.03;;;10.84;100.00
32083;BME280;18597;48.328;7.932;2023-04-28T02:39:14;99278.34;;;10.93;100.00
32083;BME280;18597;48.328;7.932;2023-04-28T02:41:40;99273.44;;;10.98;100.00
32083;BME280;18597;48.328;7.932;2023-04-28T02:44:05;99269.47;;;11.02;100.00
32083;BME280;18597;48.328;7.932;2023-04-28T02:46:31;99277.34;;;10.94;100.00
32083;BME280;18597;48.328;7.932;2023-04-28T02:48:57;99270.47;;;10.92;100.00
32083;BME280;18597;48.328;7.932;2023-04-28T02:51:23;99274.16;;;10.91;100.00
32083;BME280;18597;48.328;7.932;2023-04-28T02:53:49;99282.13;;;11.10;100.00
32083;BME280;18597;48.328;7.932;2023-04-28T02:56:15;99284.97;;;10.99;100.00
32083;BME280;18597;48.328;7.932;2023-04-28T02:58:41;99289.44;;;11.08;100.00
32083;BME280;18597;48.328;7.932;2023-04-28T03:01:07;99282.00;;;11.11;100.00
32083;BME280;18597;48.328;7.932;2023-04-28T03:03:32;99283.69;;;11.13;100.00
32083;BME280;18597;48.328;7.932;2023-04-28T03:05:58;99278.75;;;11.08;100.00
32083;BME280;18597;48.328;7.932;2023-04-28T03:08:24;99268.38;;;11.05;100.00
32083;BME280;18597;48.328;7.932;2023-04-28T03:10:50;99261.03;;;11.07;100.00
32083;BME280;18597;48.328;7.932;2023-04-28T03:13:16;99257.66;;;11.05;100.00
32083;BME280;18597;48.328;7.932;2023-04-28T03:15:42;99256.25;;;11.01;100.00
32083;BME280;18597;48.328;7.932;2023-04-28T03:18:08;99246.00;;;10.96;100.00
32083;BME280;18597;48.328;7.932;2023-04-28T03:20:33;99255.00;;;11.05;100.00
32083;BME280;18597;48.328;7.932;2023-04-28T03:22:59;99244.00;;;11.08;100.00
32083;BME280;18597;48.328;7.932;2023-04-28T03:25:26;99249.47;;;11.16;100.00
32083;BME280;18597;48.328;7.932;2023-04-28T03:27:52;99240.59;;;11.16;100.00
32083;BME280;18597;48.328;7.932;2023-04-28T03:30:19;99238.91;;;11.24;100.00
32083;BME280;18597;48.328;7.932;2023-04-28T03:32:44;99234.69;;;11.22;100.00
32083;BME280;18597;48.328;7.932;2023-04-28T03:35:10;99231.88;;;11.23;100.00
32083;BME280;18597;48.328;7.932;2023-04-28T03:37:36;99227.94;;;11.27;100.00
32083;BME280;18597;48.328;7.932;2023-04-28T03:40:02;99229.19;;;11.23;100.00
32083;BME280;18597;48.328;7.932;2023-04-28T03:42:28;99227.63;;;11.30;100.00
32083;BME280;18597;48.328;7.932;2023-04-28T03:44:54;99225.50;;;11.34;100.00
32083;BME280;18597;48.328;7.932;2023-04-28T03:47:20;99224.16;;;11.20;100.00
32083;BME280;18597;48.328;7.932;2023-04-28T03:49:45;99218.03;;;11.37;100.00
32083;BME280;18597;48.328;7.932;2023-04-28T03:52:11;99217.50;;;11.24;100.00
32083;BME280;18597;48.328;7.932;2023-04-28T03:54:37;99209.91;;;11.29;100.00
32083;BME280;18597;48.328;7.932;2023-04-28T03:57:03;99214.13;;;11.22;100.00
32083;BME280;18597;48.328;7.932;2023-04-28T03:59:29;99214.97;;;11.23;100.00
32083;BME280;18597;48.328;7.932;2023-04-28T04:01:54;99220.28;;;11.32;100.00
32083;BME280;18597;48.328;7.932;2023-04-28T04:04:20;99222.84;;;11.34;100.00
32083;BME280;18597;48.328;7.932;2023-04-28T04:06:46;99220.84;;;11.36;100.00
32083;BME280;18597;48.328;7.932;2023-04-28T04:09:12;99219.28;;;11.33;100.00
32083;BME280;18597;48.328;7.932;2023-04-28T04:11:37;99221.97;;;11.33;100.00
32083;BME280;18597;48.328;7.932;2023-04-28T04:14:03;99217.50;;;11.34;100.00
32083;BME280;18597;48.328;7.932;2023-04-28T04:16:30;99219.19;;;11.25;100.00
32083;BME280;18597;48.328;7.932;2023-04-28T04:18:56;99212.38;;;11.40;100.00
32083;BME280;18597;48.328;7.932;2023-04-28T04:21:22;99223.59;;;11.54;100.00
32083;BME280;18597;48.328;7.932;2023-04-28T04:23:48;99220.22;;;11.52;100.00
32083;BME280;18597;48.328;7.932;2023-04-28T04:26:14;99230.53;;;11.47;100.00
32083;BME280;18597;48.328;7.932;2023-04-28T04:28:40;99219.41;;;11.51;100.00
32083;BME280;18597;48.328;7.932;2023-04-28T04:31:06;99221.34;;;11.59;100.00
32083;BME280;18597;48.328;7.932;2023-04-28T04:33:32;99219.50;;;11.59;100.00
32083;BME280;18597;48.328;7.932;2023-04-28T04:35:59;99215.00;;;11.60;100.00
32083;BME280;18597;48.328;7.932;2023-04-28T04:38:25;99223.31;;;11.57;100.00
32083;BME280;18597;48.328;7.932;2023-04-28T04:40:51;99216.38;;;11.64;100.00
32083;BME280;18597;48.328;7.932;2023-04-28T04:43:16;99219.16;;;11.72;100.00
32083;BME280;18597;48.328;7.932;2023-04-28T04:45:42;99219.53;;;11.77;100.00
32083;BME280;18597;48.328;7.932;2023-04-28T04:48:08;99215.31;;;11.84;100.00
32083;BME280;18597;48.328;7.932;2023-04-28T04:50:34;99215.19;;;11.76;100.00
32083;BME280;18597;48.328;7.932;2023-04-28T04:53:00;99221.22;;;11.88;100.00
32083;BME280;18597;48.328;7.932;2023-04-28T04:55:26;99220.97;;;11.81;100.00
32083;BME280;18597;48.328;7.932;2023-04-28T04:57:51;99217.31;;;11.82;100.00
32083;BME280;18597;48.328;7.932;2023-04-28T05:00:18;99223.91;;;11.88;100.00
32083;BME280;18597;48.328;7.932;2023-04-28T05:02:44;99218.69;;;11.86;100.00
32083;BME280;18597;48.328;7.932;2023-04-28T05:05:09;99214.88;;;11.89;100.00
32083;BME280;18597;48.328;7.932;2023-04-28T05:07:35;99214.41;;;11.93;100.00
32083;BME280;18597;48.328;7.932;2023-04-28T05:10:01;99218.91;;;11.93;100.00
32083;BME280;18597;48.328;7.932;2023-04-28T05:12:27;99216.66;;;11.98;100.00
32083;BME280;18597;48.328;7.932;2023-04-28T05:14:53;99219.47;;;11.97;100.00
32083;BME280;18597;48.328;7.932;2023-04-28T05:17:19;99214.53;;;12.02;100.00
32083;BME280;18597;48.328;7.932;2023-04-28T05:19:45;99212.91;;;12.09;100.00
32083;BME280;18597;48.328;7.932;2023-04-28T05:22:11;99211.78;;;12.11;100.00
32083;BME280;18597;48.328;7.932;2023-04-28T05:24:37;99203.91;;;12.10;100.00
32083;BME280;18597;48.328;7.932;2023-04-28T05:27:02;99203.81;;;12.19;100.00
32083;BME280;18597;48.328;7.932;2023-04-28T05:29:28;99206.59;;;12.28;100.00
32083;BME280;18597;48.328;7.932;2023-04-28T05:31:54;99203.75;;;12.29;100.00
32083;BME280;18597;48.328;7.932;2023-04-28T05:34:20;99201.63;;;12.33;100.00
32083;BME280;18597;48.328;7.932;2023-04-28T05:36:46;99198.84;;;12.42;100.00
32083;BME280;18597;48.328;7.932;2023-04-28T05:39:11;99197.69;;;12.45;100.00
32083;BME280;18597;48.328;7.932;2023-04-28T05:41:37;99192.06;;;12.48;100.00
32083;BME280;18597;48.328;7.932;2023-04-28T05:44:03;99193.97;;;12.56;100.00
32083;BME280;18597;48.328;7.932;2023-04-28T05:46:30;99189.97;;;12.60;100.00
32083;BME280;18597;48.328;7.932;2023-04-28T05:48:56;99196.16;;;12.60;100.00
32083;BME280;18597;48.328;7.932;2023-04-28T05:51:23;99195.53;;;12.66;100.00
32083;BME280;18597;48.328;7.932;2023-04-28T05:53:48;99192.75;;;12.76;100.00
32083;BME280;18597;48.328;7.932;2023-04-28T05:56:15;99195.06;;;12.89;100.00
32083;BME280;18597;48.328;7.932;2023-04-28T05:58:44;99201.97;;;12.99;100.00
32083;BME280;18597;48.328;7.932;2023-04-28T06:01:10;99202.69;;;13.01;100.00
32083;BME280;18597;48.328;7.932;2023-04-28T06:03:36;99204.59;;;13.09;100.00
32083;BME280;18597;48.328;7.932;2023-04-28T06:06:02;99209.69;;;13.20;100.00
32083;BME280;18597;48.328;7.932;2023-04-28T06:08:28;99204.34;;;13.20;100.00
32083;BME280;18597;48.328;7.932;2023-04-28T06:10:54;99202.91;;;13.34;100.00
32083;BME280;18597;48.328;7.932;2023-04-28T06:13:20;99198.44;;;13.43;100.00
32083;BME280;18597;48.328;7.932;2023-04-28T06:15:45;99199.00;;;13.54;100.00
32083;BME280;18597;48.328;7.932;2023-04-28T06:18:11;99191.66;;;13.65;100.00
32083;BME280;18597;48.328;7.932;2023-04-28T06:20:37;99200.38;;;13.67;100.00
32083;BME280;18597;48.328;7.932;2023-04-28T06:23:03;99192.03;;;13.70;100.00
32083;BME280;18597;48.328;7.932;2023-04-28T06:25:29;99187.97;;;13.66;100.00
32083;BME280;18597;48.328;7.932;2023-04-28T06:27:54;99193.06;;;13.77;100.00
32083;BME280;18597;48.328;7.932;2023-04-28T06:30:22;99192.41;;;13.83;100.00
32083;BME280;18597;48.328;7.932;2023-04-28T06:32:48;99186.88;;;13.84;100.00
32083;BME280;18597;48.328;7.932;2023-04-28T06:35:15;99191.75;;;13.89;100.00
32083;BME280;18597;48.328;7.932;2023-04-28T06:37:41;99191.06;;;13.87;100.00
32083;BME280;18597;48.328;7.932;2023-04-28T06:40:09;99195.56;;;13.78;100.00
32083;BME280;18597;48.328;7.932;2023-04-28T06:42:35;99199.78;;;13.89;100.00
32083;BME280;18597;48.328;7.932;2023-04-28T06:45:01;99195.94;;;13.83;100.00
32083;BME280;18597;48.328;7.932;2023-04-28T06:47:27;99206.69;;;13.83;100.00
32083;BME280;18597;48.328;7.932;2023-04-28T06:49:53;99212.34;;;13.80;100.00
32083;BME280;18597;48.328;7.932;2023-04-28T06:52:19;99220.25;;;13.82;100.00
32083;BME280;18597;48.328;7.932;2023-04-28T06:54:48;99228.13;;;13.75;100.00
32083;BME280;18597;48.328;7.932;2023-04-28T06:57:14;99228.13;;;13.75;100.00
32083;BME280;18597;48.328;7.932;2023-04-28T06:59:40;99222.88;;;13.66;100.00
32083;BME280;18597;48.328;7.932;2023-04-28T07:02:09;99225.25;;;13.69;100.00
32083;BME280;18597;48.328;7.932;2023-04-28T07:04:36;99224.63;;;13.83;100.00
32083;BME280;18597;48.328;7.932;2023-04-28T07:07:02;99236.69;;;13.79;100.00
32083;BME280;18597;48.328;7.932;2023-04-28T07:09:33;99234.38;;;13.84;100.00
32083;BME280;18597;48.328;7.932;2023-04-28T07:11:59;99232.84;;;13.89;100.00
32083;BME280;18597;48.328;7.932;2023-04-28T07:14:25;99239.06;;;13.90;100.00
32083;BME280;18597;48.328;7.932;2023-04-28T07:16:51;99235.03;;;13.86;100.00
32083;BME280;18597;48.328;7.932;2023-04-28T07:19:17;99235.22;;;13.84;100.00
32083;BME280;18597;48.328;7.932;2023-04-28T07:21:42;99230.69;;;13.85;100.00
32083;BME280;18597;48.328;7.932;2023-04-28T07:24:09;99238.59;;;13.95;100.00
32083;BME280;18597;48.328;7.932;2023-04-28T07:26:34;99244.50;;;13.98;100.00
32083;BME280;18597;48.328;7.932;2023-04-28T07:29:00;99248.03;;;13.99;100.00
32083;BME280;18597;48.328;7.932;2023-04-28T07:31:26;99233.63;;;14.08;100.00
32083;BME280;18597;48.328;7.932;2023-04-28T07:33:53;99237.16;;;14.16;100.00
32083;BME280;18597;48.328;7.932;2023-04-28T07:36:20;99242.88;;;14.22;100.00
32083;BME280;18597;48.328;7.932;2023-04-28T07:38:46;99249.63;;;14.34;100.00
32083;BME280;18597;48.328;7.932;2023-04-28T07:41:12;99247.28;;;14.39;100.00
32083;BME280;18597;48.328;7.932;2023-04-28T07:43:39;99240.78;;;14.50;100.00
32083;BME280;18597;48.328;7.932;2023-04-28T07:46:06;99244.66;;;14.55;100.00
32083;BME280;18597;48.328;7.932;2023-04-28T07:48:33;99249.88;;;14.65;100.00
32083;BME280;18597;48.328;7.932;2023-04-28T07:51:00;99251.41;;;14.76;100.00
32083;BME280;18597;48.328;7.932;2023-04-28T07:53:26;99249.38;;;14.78;100.00
32083;BME280;18597;48.328;7.932;2023-04-28T07:55:53;99248.91;;;14.74;100.00
32083;BME280;18597;48.328;7.932;2023-04-28T07:58:18;99260.63;;;14.73;100.00
32083;BME280;18597;48.328;7.932;2023-04-28T08:00:44;99261.16;;;14.68;100.00
32083;BME280;18597;48.328;7.932;2023-04-28T08:03:11;99253.75;;;14.70;100.00
32083;BME280;18597;48.328;7.932;2023-04-28T08:05:38;99260.97;;;14.78;100.00
32083;BME280;18597;48.328;7.932;2023-04-28T08:08:04;99269.72;;;14.80;100.00
32083;BME280;18597;48.328;7.932;2023-04-28T08:10:30;99269.56;;;14.90;100.00
32083;BME280;18597;48.328;7.932;2023-04-28T08:12:56;99278.97;;;14.94;100.00
32083;BME280;18597;48.328;7.932;2023-04-28T08:15:22;99281.66;;;14.94;100.00
32083;BME280;18597;48.328;7.932;2023-04-28T08:17:47;99274.25;;;14.96;100.00
32083;BME280;18597;48.328;7.932;2023-04-28T08:20:13;99284.88;;;14.89;100.00
32083;BME280;18597;48.328;7.932;2023-04-28T08:22:40;99286.03;;;14.79;100.00
32083;BME280;18597;48.328;7.932;2023-04-28T08:25:07;99290.56;;;14.70;100.00
32083;BME280;18597;48.328;7.932;2023-04-28T08:27:32;99293.41;;;14.68;100.00
32083;BME280;18597;48.328;7.932;2023-04-28T08:29:59;99300.81;;;14.66;100.00
32083;BME280;18597;48.328;7.932;2023-04-28T08:32:25;99302.97;;;14.71;100.00
32083;BME280;18597;48.328;7.932;2023-04-28T08:34:50;99294.94;;;14.79;100.00
32083;BME280;18597;48.328;7.932;2023-04-28T08:37:16;99296.78;;;14.79;100.00
32083;BME280;18597;48.328;7.932;2023-04-28T08:39:42;99289.91;;;14.84;100.00
32083;BME280;18597;48.328;7.932;2023-04-28T08:42:08;99280.81;;;14.93;100.00
32083;BME280;18597;48.328;7.932;2023-04-28T08:44:38;99281.84;;;15.01;100.00
32083;BME280;18597;48.328;7.932;2023-04-28T08:47:12;99285.38;;;15.01;100.00
32083;BME280;18597;48.328;7.932;2023-04-28T08:49:40;99286.03;;;14.95;100.00
32083;BME280;18597;48.328;7.932;2023-04-28T08:52:11;99291.41;;;15.03;100.00
32083;BME280;18597;48.328;7.932;2023-04-28T08:54:38;99294.97;;;15.12;100.00
32083;BME280;18597;48.328;7.932;2023-04-28T08:57:08;99297.31;;;15.15;100.00
32083;BME280;18597;48.328;7.932;2023-04-28T08:59:39;99314.63;;;15.12;100.00
32083;BME280;18597;48.328;7.932;2023-04-28T09:02:08;99314.59;;;14.96;100.00
32083;BME280;18597;48.328;7.932;2023-04-28T09:04:34;99320.31;;;14.85;100.00
32083;BME280;18597;48.328;7.932;2023-04-28T09:06:59;99319.66;;;14.91;100.00
32083;BME280;18597;48.328;7.932;2023-04-28T09:09:28;99330.59;;;14.97;100.00
32083;BME280;18597;48.328;7.932;2023-04-28T09:11:59;99333.97;;;14.99;100.00
32083;BME280;18597;48.328;7.932;2023-04-28T09:14:27;99330.44;;;15.07;100.00
32083;BME280;18597;48.328;7.932;2023-04-28T09:16:54;99335.50;;;15.26;100.00
32083;BME280;18597;48.328;7.932;2023-04-28T09:19:20;99339.16;;;15.09;100.00
32083;BME280;18597;48.328;7.932;2023-04-28T09:21:52;99343.03;;;15.07;100.00
32083;BME280;18597;48.328;7.932;2023-04-28T09:24:39;99342.03;;;15.08;100.00
32083;BME280;18597;48.328;7.932;2023-04-28T09:27:07;99345.38;;;15.02;100.00
32083;BME280;18597;48.328;7.932;2023-04-28T09:29:37;99344.56;;;15.09;100.00
32083;BME280;18597;48.328;7.932;2023-04-28T09:32:19;99351.78;;;15.33;100.00
32083;BME280;18597;48.328;7.932;2023-04-28T09:34:52;99342.72;;;15.67;100.00
32083;BME280;18597;48.328;7.932;2023-04-28T09:37:23;99348.88;;;16.00;100.00
32083;BME280;18597;48.328;7.932;2023-04-28T09:39:52;99347.06;;;16.31;100.00
32083;BME280;18597;48.328;7.932;2023-04-28T09:42:36;99344.88;;;16.66;100.00
32083;BME280;18597;48.328;7.932;2023-04-28T09:45:08;99345.53;;;16.99;100.00
32083;BME280;18597;48.328;7.932;2023-04-28T09:47:38;99347.13;;;17.16;100.00
32083;BME280;18597;48.328;7.932;2023-04-28T09:50:07;99343.94;;;17.13;100.00
32083;BME280;18597;48.328;7.932;2023-04-28T09:52:36;99339.25;;;17.30;100.00
32083;BME280;18597;48.328;7.932;2023-04-28T09:55:05;99343.66;;;17.31;100.00
32083;BME280;18597;48.328;7.932;2023-04-28T09:57:34;99340.22;;;17.14;100.00
32083;BME280;18597;48.328;7.932;2023-04-28T10:00:01;99345.97;;;17.11;100.00
32083;BME280;18597;48.328;7.932;2023-04-28T10:02:32;99347.66;;;17.12;100.00
32083;BME280;18597;48.328;7.932;2023-04-28T10:04:59;99353.81;;;16.98;100.00
32083;BME280;18597;48.328;7.932;2023-04-28T10:07:26;99349.31;;;16.90;100.00
32083;BME280;18597;48.328;7.932;2023-04-28T10:09:53;99338.28;;;17.00;100.00
32083;BME280;18597;48.328;7.932;2023-04-28T10:12:20;99340.97;;;17.23;100.00
32083;BME280;18597;48.328;7.932;2023-04-28T10:14:48;99329.78;;;17.71;100.00
32083;BME280;18597;48.328;7.932;2023-04-28T10:17:16;99333.06;;;18.11;100.00
32083;BME280;18597;48.328;7.932;2023-04-28T10:19:45;99328.75;;;18.46;100.00
32083;BME280;18597;48.328;7.932;2023-04-28T10:25:34;99325.19;;;18.61;100.00
32083;BME280;18597;48.328;7.932;2023-04-28T10:28:06;99333.88;;;18.92;100.00
32083;BME280;18597;48.328;7.932;2023-04-28T10:30:32;99328.22;;;19.30;100.00
32083;BME280;18597;48.328;7.932;2023-04-28T10:35:47;99324.59;;;19.65;100.00
32083;BME280;18597;48.328;7.932;2023-04-28T10:38:16;99323.00;;;19.28;100.00
32083;BME280;18597;48.328;7.932;2023-04-28T10:40:45;99334.91;;;19.34;100.00
32083;BME280;18597;48.328;7.932;2023-04-28T10:43:14;99324.06;;;19.34;100.00
32083;BME280;18597;48.328;7.932;2023-04-28T10:46:00;99329.19;;;19.22;100.00
32083;BME280;18597;48.328;7.932;2023-04-28T10:54:13;99320.06;;;19.73;100.00
32083;BME280;18597;48.328;7.932;2023-04-28T10:57:13;99316.09;;;20.10;100.00
32083;BME280;18597;48.328;7.932;2023-04-28T10:59:27;99314.09;;;20.18;100.00
32083;BME280;18597;48.328;7.932;2023-04-28T11:01:53;99318.34;;;20.00;100.00
32083;BME280;18597;48.328;7.932;2023-04-28T11:04:19;99322.28;;;19.97;100.00
32083;BME280;18597;48.328;7.932;2023-04-28T11:06:46;99314.78;;;19.99;100.00
32083;BME280;18597;48.328;7.932;2023-04-28T11:12:05;99314.03;;;19.77;100.00
32083;BME280;18597;48.328;7.932;2023-04-28T11:14:37;99316.78;;;19.84;100.00
32083;BME280;18597;48.328;7.932;2023-04-28T11:17:08;99312.03;;;19.92;100.00
32083;BME280;18597;48.328;7.932;2023-04-28T11:19:38;99307.00;;;20.24;100.00
32083;BME280;18597;48.328;7.932;2023-04-28T11:22:20;99315.78;;;20.33;100.00
32083;BME280;18597;48.328;7.932;2023-04-28T11:24:58;99308.50;;;20.40;100.00
32083;BME280;18597;48.328;7.932;2023-04-28T11:27:26;99294.94;;;20.40;100.00
32083;BME280;18597;48.328;7.932;2023-04-28T11:29:52;99310.81;;;20.36;100.00
32083;BME280;18597;48.328;7.932;2023-04-28T11:32:26;99302.22;;;20.26;100.00
32083;BME280;18597;48.328;7.932;2023-04-28T11:34:53;99297.31;;;20.08;100.00
32083;BME280;18597;48.328;7.932;2023-04-28T11:37:19;99301.47;;;20.04;100.00
32083;BME280;18597;48.328;7.932;2023-04-28T11:39:46;99290.59;;;19.98;100.00
32083;BME280;18597;48.328;7.932;2023-04-28T11:42:12;99286.47;;;20.08;100.00
32083;BME280;18597;48.328;7.932;2023-04-28T11:44:38;99292.94;;;20.55;100.00
32083;BME280;18597;48.328;7.932;2023-04-28T11:47:05;99286.59;;;20.96;98.04
32083;BME280;18597;48.328;7.932;2023-04-28T11:49:46;99280.97;;;21.17;95.01
32083;BME280;18597;48.328;7.932;2023-04-28T11:52:12;99273.44;;;21.19;95.43
32083;BME280;18597;48.328;7.932;2023-04-28T11:54:38;99281.81;;;21.24;95.43
32083;BME280;18597;48.328;7.932;2023-04-28T11:57:18;99263.22;;;20.95;94.41
32083;BME280;18597;48.328;7.932;2023-04-28T11:59:44;99280.50;;;20.81;98.17
32083;BME280;18597;48.328;7.932;2023-04-28T12:02:10;99268.84;;;20.93;96.91
32083;BME280;18597;48.328;7.932;2023-04-28T12:04:41;99267.81;;;21.21;95.40
32083;BME280;18597;48.328;7.932;2023-04-28T12:07:13;99264.31;;;21.40;93.05
32083;BME280;18597;48.328;7.932;2023-04-28T12:09:42;99267.41;;;21.17;94.75
32083;BME280;18597;48.328;7.932;2023-04-28T12:12:11;99259.88;;;21.19;95.07
32083;BME280;18597;48.328;7.932;2023-04-28T12:14:59;99263.88;;;21.37;93.31
32083;BME280;18597;48.328;7.932;2023-04-28T12:20:05;99251.69;;;21.72;88.86
32083;BME280;18597;48.328;7.932;2023-04-28T12:22:46;99267.16;;;20.31;96.92
32083;BME280;18597;48.328;7.932;2023-04-28T12:25:15;99264.59;;;20.58;100.00
32083;BME280;18597;48.328;7.932;2023-04-28T12:28:02;99261.97;;;20.36;98.73
32083;BME280;18597;48.328;7.932;2023-04-28T12:30:34;99253.97;;;20.15;100.00
32083;BME280;18597;48.328;7.932;2023-04-28T12:33:03;99263.13;;;20.68;100.00
32083;BME280;18597;48.328;7.932;2023-04-28T12:35:29;99257.13;;;20.80;99.70
32083;BME280;18597;48.328;7.932;2023-04-28T12:37:55;99260.34;;;20.01;100.00
32083;BME280;18597;48.328;7.932;2023-04-28T12:40:23;99260.91;;;20.31;100.00
32083;BME280;18597;48.328;7.932;2023-04-28T12:42:49;99264.56;;;20.51;100.00
32083;BME280;18597;48.328;7.932;2023-04-28T12:45:15;99257.13;;;20.73;100.00
32083;BME280;18597;48.328;7.932;2023-04-28T12:47:41;99251.28;;;20.89;100.00
32083;BME280;18597;48.328;7.932;2023-04-28T12:50:08;99246.91;;;21.15;100.00
32083;BME280;18597;48.328;7.932;2023-04-28T12:52:34;99247.94;;;21.00;100.00
32083;BME280;18597;48.328;7.932;2023-04-28T12:55:03;99252.13;;;21.03;100.00
32083;BME280;18597;48.328;7.932;2023-04-28T12:57:29;99242.97;;;21.17;100.00
32083;BME280;18597;48.328;7.932;2023-04-28T12:59:55;99239.41;;;21.43;100.00
32083;BME280;18597;48.328;7.932;2023-04-28T13:02:22;99237.09;;;21.27;100.00
32083;BME280;18597;48.328;7.932;2023-04-28T13:04:48;99244.97;;;20.69;100.00
32083;BME280;18597;48.328;7.932;2023-04-28T13:07:14;99253.94;;;20.56;100.00